Porcupine, South Dakota
Current Conditions -  °F | °C
As of 8:52 AM on Thursday 18 Dec 2014 (Local Time) from KIEN Reporting Station
Clear Clear  
Wind Chill: 12°   Ceiling: Unl
Heat Index: 12°   Visibility: 8mi
Dew Point:   Wind: 0mph
Humidity: 80%   Direction: NA
Pressure: 30.04"   Gusts: NA
Location:  43.24°N, 102.33°W
Report Text: KIEN 181552Z AUTO 00000KT 8SM CLR M11/M14 A3004 RMK AO2 SLP226 T11111139
Loading
Personal Weather Stations






























Interactive Weather Map New forecast layout! Learn more

10-Day Weather Forecast

Advertisements
Track Severe Weather on mobile